sensor_id;sensor_type;location;lat;lon;timestamp;temperature;humidity
18173;DHT22;9211;48.818;9.312;2023-04-25T00:00:55;11.00;99.90
18173;DHT22;9211;48.818;9.312;2023-04-25T00:03:23;11.00;99.90
18173;DHT22;9211;48.818;9.312;2023-04-25T00:05:50;11.00;99.90
18173;DHT22;9211;48.818;9.312;2023-04-25T00:08:19;11.00;99.90
18173;DHT22;9211;48.818;9.312;2023-04-25T00:10:46;10.90;99.90
18173;DHT22;9211;48.818;9.312;2023-04-25T00:13:14;10.90;99.90
18173;DHT22;9211;48.818;9.312;2023-04-25T00:15:43;10.90;99.90
18173;DHT22;9211;48.818;9.312;2023-04-25T00:18:13;10.90;99.90
18173;DHT22;9211;48.818;9.312;2023-04-25T00:20:40;10.90;99.90
18173;DHT22;9211;48.818;9.312;2023-04-25T00:23:12;10.90;99.90
18173;DHT22;9211;48.818;9.312;2023-04-25T00:25:44;10.90;99.90
18173;DHT22;9211;48.818;9.312;2023-04-25T00:28:11;10.80;99.90
18173;DHT22;9211;48.818;9.312;2023-04-25T00:30:39;10.80;99.90
18173;DHT22;9211;48.818;9.312;2023-04-25T00:33:06;10.80;99.90
18173;DHT22;9211;48.818;9.312;2023-04-25T00:35:33;10.70;99.90
18173;DHT22;9211;48.818;9.312;2023-04-25T00:38:00;10.70;99.90
18173;DHT22;9211;48.818;9.312;2023-04-25T00:40:27;10.70;99.90
18173;DHT22;9211;48.818;9.312;2023-04-25T00:42:56;10.70;99.90
18173;DHT22;9211;48.818;9.312;2023-04-25T00:45:27;10.70;99.90
18173;DHT22;9211;48.818;9.312;2023-04-25T00:47:55;10.70;99.90
18173;DHT22;9211;48.818;9.312;2023-04-25T00:50:23;10.70;99.90
18173;DHT22;9211;48.818;9.312;2023-04-25T00:52:50;10.70;99.90
18173;DHT22;9211;48.818;9.312;2023-04-25T00:55:17;10.60;99.90
18173;DHT22;9211;48.818;9.312;2023-04-25T00:57:45;10.50;99.90
18173;DHT22;9211;48.818;9.312;2023-04-25T01:00:14;10.40;99.90
18173;DHT22;9211;48.818;9.312;2023-04-25T01:02:43;10.40;99.90
18173;DHT22;9211;48.818;9.312;2023-04-25T01:05:11;10.40;99.90
18173;DHT22;9211;48.818;9.312;2023-04-25T01:07:39;10.50;99.90
18173;DHT22;9211;48.818;9.312;2023-04-25T01:10:08;10.50;99.90
18173;DHT22;9211;48.818;9.312;2023-04-25T01:12:37;10.50;99.90
18173;DHT22;9211;48.818;9.312;2023-04-25T01:15:05;10.50;99.90
18173;DHT22;9211;48.818;9.312;2023-04-25T01:17:34;10.50;99.90
18173;DHT22;9211;48.818;9.312;2023-04-25T01:20:03;10.50;99.90
18173;DHT22;9211;48.818;9.312;2023-04-25T01:22:31;10.50;99.90
18173;DHT22;9211;48.818;9.312;2023-04-25T01:24:59;10.50;99.90
18173;DHT22;9211;48.818;9.312;2023-04-25T01:27:27;10.50;99.90
18173;DHT22;9211;48.818;9.312;2023-04-25T01:29:55;10.50;99.90
18173;DHT22;9211;48.818;9.312;2023-04-25T01:32:22;10.50;99.90
18173;DHT22;9211;48.818;9.312;2023-04-25T01:34:50;10.40;99.90
18173;DHT22;9211;48.818;9.312;2023-04-25T01:37:19;10.40;99.90
18173;DHT22;9211;48.818;9.312;2023-04-25T01:39:48;10.50;99.90
18173;DHT22;9211;48.818;9.312;2023-04-25T01:42:15;10.50;99.90
18173;DHT22;9211;48.818;9.312;2023-04-25T01:44:42;10.50;99.90
18173;DHT22;9211;48.818;9.312;2023-04-25T01:47:10;10.50;99.90
18173;DHT22;9211;48.818;9.312;2023-04-25T01:49:37;10.50;99.90
18173;DHT22;9211;48.818;9.312;2023-04-25T01:52:04;10.50;99.90
18173;DHT22;9211;48.818;9.312;2023-04-25T01:54:31;10.60;99.90
18173;DHT22;9211;48.818;9.312;2023-04-25T01:57:00;10.50;99.90
18173;DHT22;9211;48.818;9.312;2023-04-25T01:59:28;10.60;99.90
18173;DHT22;9211;48.818;9.312;2023-04-25T02:02:04;10.60;99.90
18173;DHT22;9211;48.818;9.312;2023-04-25T02:04:32;10.50;99.90
18173;DHT22;9211;48.818;9.312;2023-04-25T02:07:01;10.60;99.90
18173;DHT22;9211;48.818;9.312;2023-04-25T02:09:37;10.60;99.90
18173;DHT22;9211;48.818;9.312;2023-04-25T02:12:08;10.50;99.90
18173;DHT22;9211;48.818;9.312;2023-04-25T02:14:58;10.50;99.90
18173;DHT22;9211;48.818;9.312;2023-04-25T02:17:34;10.50;99.90
18173;DHT22;9211;48.818;9.312;2023-04-25T02:20:01;10.50;99.90
18173;DHT22;9211;48.818;9.312;2023-04-25T02:22:29;10.50;99.90
18173;DHT22;9211;48.818;9.312;2023-04-25T02:24:56;10.40;99.90
18173;DHT22;9211;48.818;9.312;2023-04-25T02:27:25;10.50;99.90
18173;DHT22;9211;48.818;9.312;2023-04-25T02:29:52;10.50;99.90
18173;DHT22;9211;48.818;9.312;2023-04-25T02:32:19;10.50;99.90
18173;DHT22;9211;48.818;9.312;2023-04-25T02:34:46;10.50;99.90
18173;DHT22;9211;48.818;9.312;2023-04-25T02:37:14;10.50;99.90
18173;DHT22;9211;48.818;9.312;2023-04-25T02:39:41;10.40;99.90
18173;DHT22;9211;48.818;9.312;2023-04-25T02:42:08;10.30;99.90
18173;DHT22;9211;48.818;9.312;2023-04-25T02:44:36;10.40;99.90
18173;DHT22;9211;48.818;9.312;2023-04-25T02:47:04;10.30;99.90
18173;DHT22;9211;48.818;9.312;2023-04-25T02:49:31;10.30;99.90
18173;DHT22;9211;48.818;9.312;2023-04-25T02:51:58;10.30;99.90
18173;DHT22;9211;48.818;9.312;2023-04-25T02:54:26;10.30;99.90
18173;DHT22;9211;48.818;9.312;2023-04-25T02:56:54;10.30;99.90
18173;DHT22;9211;48.818;9.312;2023-04-25T02:59:26;10.30;99.90
18173;DHT22;9211;48.818;9.312;2023-04-25T03:01:54;10.30;99.90
18173;DHT22;9211;48.818;9.312;2023-04-25T03:04:22;10.30;99.90
18173;DHT22;9211;48.818;9.312;2023-04-25T03:06:49;10.20;99.90
18173;DHT22;9211;48.818;9.312;2023-04-25T03:09:19;10.00;99.90
18173;DHT22;9211;48.818;9.312;2023-04-25T03:11:47;10.00;99.90
18173;DHT22;9211;48.818;9.312;2023-04-25T03:14:14;10.00;99.90
18173;DHT22;9211;48.818;9.312;2023-04-25T03:16:41;10.00;99.90
18173;DHT22;9211;48.818;9.312;2023-04-25T03:19:09;9.90;99.90
18173;DHT22;9211;48.818;9.312;2023-04-25T03:21:37;9.80;99.90
18173;DHT22;9211;48.818;9.312;2023-04-25T03:24:04;9.80;99.90
18173;DHT22;9211;48.818;9.312;2023-04-25T03:26:31;9.90;99.90
18173;DHT22;9211;48.818;9.312;2023-04-25T03:28:59;9.90;99.90
18173;DHT22;9211;48.818;9.312;2023-04-25T03:31:26;9.90;99.90
18173;DHT22;9211;48.818;9.312;2023-04-25T03:33:54;9.80;99.90
18173;DHT22;9211;48.818;9.312;2023-04-25T03:36:24;9.80;99.90
18173;DHT22;9211;48.818;9.312;2023-04-25T03:38:51;9.80;99.90
18173;DHT22;9211;48.818;9.312;2023-04-25T03:41:20;9.70;99.90
18173;DHT22;9211;48.818;9.312;2023-04-25T03:43:58;9.80;99.90
18173;DHT22;9211;48.818;9.312;2023-04-25T03:46:26;9.80;99.90
18173;DHT22;9211;48.818;9.312;2023-04-25T03:48:53;9.90;99.90
18173;DHT22;9211;48.818;9.312;2023-04-25T03:51:26;9.90;99.90
18173;DHT22;9211;48.818;9.312;2023-04-25T03:53:53;9.90;99.90
18173;DHT22;9211;48.818;9.312;2023-04-25T03:56:38;10.00;99.90
18173;DHT22;9211;48.818;9.312;2023-04-25T03:59:15;10.00;99.90
18173;DHT22;9211;48.818;9.312;2023-04-25T04:01:42;10.00;99.90
18173;DHT22;9211;48.818;9.312;2023-04-25T04:04:10;10.00;99.90
18173;DHT22;9211;48.818;9.312;2023-04-25T04:06:38;10.10;99.90
18173;DHT22;9211;48.818;9.312;2023-04-25T04:09:26;10.10;99.90
18173;DHT22;9211;48.818;9.312;2023-04-25T04:11:55;10.10;99.90
18173;DHT22;9211;48.818;9.312;2023-04-25T04:14:21;10.10;99.90
18173;DHT22;9211;48.818;9.312;2023-04-25T04:16:51;10.10;99.90
18173;DHT22;9211;48.818;9.312;2023-04-25T04:19:18;10.10;99.90
18173;DHT22;9211;48.818;9.312;2023-04-25T04:22:03;10.10;99.90
18173;DHT22;9211;48.818;9.312;2023-04-25T04:24:30;10.10;99.90
18173;DHT22;9211;48.818;9.312;2023-04-25T04:27:01;10.10;99.90
18173;DHT22;9211;48.818;9.312;2023-04-25T04:29:33;10.10;99.90
18173;DHT22;9211;48.818;9.312;2023-04-25T04:32:10;10.10;99.90
18173;DHT22;9211;48.818;9.312;2023-04-25T04:34:37;10.10;99.90
18173;DHT22;9211;48.818;9.312;2023-04-25T04:37:06;10.10;99.90
18173;DHT22;9211;48.818;9.312;2023-04-25T04:39:33;10.10;99.90
18173;DHT22;9211;48.818;9.312;2023-04-25T04:42:07;10.20;99.90
18173;DHT22;9211;48.818;9.312;2023-04-25T04:45:10;10.20;99.90
18173;DHT22;9211;48.818;9.312;2023-04-25T04:47:58;10.20;99.90
18173;DHT22;9211;48.818;9.312;2023-04-25T04:50:28;10.20;99.90
18173;DHT22;9211;48.818;9.312;2023-04-25T04:53:19;10.20;99.90
18173;DHT22;9211;48.818;9.312;2023-04-25T04:56:13;10.20;99.90
18173;DHT22;9211;48.818;9.312;2023-04-25T04:59:10;10.20;99.90
18173;DHT22;9211;48.818;9.312;2023-04-25T05:01:57;10.20;99.90
18173;DHT22;9211;48.818;9.312;2023-04-25T05:04:44;10.20;99.90
18173;DHT22;9211;48.818;9.312;2023-04-25T05:07:31;10.20;99.90
18173;DHT22;9211;48.818;9.312;2023-04-25T05:10:26;10.20;99.90
18173;DHT22;9211;48.818;9.312;2023-04-25T05:12:56;10.20;99.90
18173;DHT22;9211;48.818;9.312;2023-04-25T05:15:22;10.20;99.90
18173;DHT22;9211;48.818;9.312;2023-04-25T05:18:16;10.20;99.90
18173;DHT22;9211;48.818;9.312;2023-04-25T05:21:07;10.30;99.90
18173;DHT22;9211;48.818;9.312;2023-04-25T05:23:54;10.30;99.90
18173;DHT22;9211;48.818;9.312;2023-04-25T05:26:38;10.30;99.90
18173;DHT22;9211;48.818;9.312;2023-04-25T05:29:25;10.30;99.90
18173;DHT22;9211;48.818;9.312;2023-04-25T05:32:11;10.40;99.90
18173;DHT22;9211;48.818;9.312;2023-04-25T05:34:38;10.40;99.90
18173;DHT22;9211;48.818;9.312;2023-04-25T05:37:11;10.50;99.90
18173;DHT22;9211;48.818;9.312;2023-04-25T05:39:50;10.50;99.90
18173;DHT22;9211;48.818;9.312;2023-04-25T05:42:33;10.40;99.90
18173;DHT22;9211;48.818;9.312;2023-04-25T05:45:08;10.50;99.90
18173;DHT22;9211;48.818;9.312;2023-04-25T05:47:54;10.40;99.90
18173;DHT22;9211;48.818;9.312;2023-04-25T05:50:36;10.40;99.90
18173;DHT22;9211;48.818;9.312;2023-04-25T05:53:14;10.40;99.90
18173;DHT22;9211;48.818;9.312;2023-04-25T05:55:43;10.40;99.90
18173;DHT22;9211;48.818;9.312;2023-04-25T05:58:22;10.30;99.90
18173;DHT22;9211;48.818;9.312;2023-04-25T06:00:49;10.20;99.90
18173;DHT22;9211;48.818;9.312;2023-04-25T06:03:17;10.20;99.90
18173;DHT22;9211;48.818;9.312;2023-04-25T06:05:45;10.10;99.90
18173;DHT22;9211;48.818;9.312;2023-04-25T06:08:12;10.10;99.90
18173;DHT22;9211;48.818;9.312;2023-04-25T06:10:39;10.20;99.90
18173;DHT22;9211;48.818;9.312;2023-04-25T06:13:06;10.10;99.90
18173;DHT22;9211;48.818;9.312;2023-04-25T06:15:36;10.00;99.90
18173;DHT22;9211;48.818;9.312;2023-04-25T06:18:03;9.90;99.90
18173;DHT22;9211;48.818;9.312;2023-04-25T06:20:30;9.90;99.90
18173;DHT22;9211;48.818;9.312;2023-04-25T06:22:59;10.00;99.90
18173;DHT22;9211;48.818;9.312;2023-04-25T06:25:49;10.00;99.90
18173;DHT22;9211;48.818;9.312;2023-04-25T06:28:16;9.90;99.90
18173;DHT22;9211;48.818;9.312;2023-04-25T06:30:45;10.00;99.90
18173;DHT22;9211;48.818;9.312;2023-04-25T06:33:17;10.10;99.90
18173;DHT22;9211;48.818;9.312;2023-04-25T06:35:44;10.20;99.90
18173;DHT22;9211;48.818;9.312;2023-04-25T06:38:13;10.20;99.90
18173;DHT22;9211;48.818;9.312;2023-04-25T06:40:45;10.30;99.90
18173;DHT22;9211;48.818;9.312;2023-04-25T06:43:12;10.40;99.90
18173;DHT22;9211;48.818;9.312;2023-04-25T06:46:04;10.50;99.90
18173;DHT22;9211;48.818;9.312;2023-04-25T06:48:33;10.70;99.90
18173;DHT22;9211;48.818;9.312;2023-04-25T06:51:00;10.70;99.90
18173;DHT22;9211;48.818;9.312;2023-04-25T06:53:28;10.80;99.90
18173;DHT22;9211;48.818;9.312;2023-04-25T06:56:00;10.80;99.90
18173;DHT22;9211;48.818;9.312;2023-04-25T06:58:59;10.80;99.90
18173;DHT22;9211;48.818;9.312;2023-04-25T07:01:34;10.80;99.90
18173;DHT22;9211;48.818;9.312;2023-04-25T07:04:04;10.90;99.90
18173;DHT22;9211;48.818;9.312;2023-04-25T07:06:33;11.00;99.90
18173;DHT22;9211;48.818;9.312;2023-04-25T07:09:00;10.90;99.90
18173;DHT22;9211;48.818;9.312;2023-04-25T07:11:28;11.00;99.90
18173;DHT22;9211;48.818;9.312;2023-04-25T07:13:56;10.90;99.90
18173;DHT22;9211;48.818;9.312;2023-04-25T07:16:23;11.00;99.90
18173;DHT22;9211;48.818;9.312;2023-04-25T07:18:51;11.00;99.90
18173;DHT22;9211;48.818;9.312;2023-04-25T07:21:19;11.00;99.90
18173;DHT22;9211;48.818;9.312;2023-04-25T07:23:47;10.90;99.90
18173;DHT22;9211;48.818;9.312;2023-04-25T07:26:18;10.80;99.90
18173;DHT22;9211;48.818;9.312;2023-04-25T07:29:05;10.80;99.90
18173;DHT22;9211;48.818;9.312;2023-04-25T07:31:32;10.80;99.90
18173;DHT22;9211;48.818;9.312;2023-04-25T07:34:00;10.70;99.90
18173;DHT22;9211;48.818;9.312;2023-04-25T07:36:27;10.80;99.90
18173;DHT22;9211;48.818;9.312;2023-04-25T07:38:54;10.80;99.90
18173;DHT22;9211;48.818;9.312;2023-04-25T07:41:21;10.90;99.90
18173;DHT22;9211;48.818;9.312;2023-04-25T07:43:48;10.80;99.90
18173;DHT22;9211;48.818;9.312;2023-04-25T07:46:16;10.80;99.90
18173;DHT22;9211;48.818;9.312;2023-04-25T07:48:43;10.80;99.90
18173;DHT22;9211;48.818;9.312;2023-04-25T07:51:12;10.80;99.90
18173;DHT22;9211;48.818;9.312;2023-04-25T07:53:42;10.60;99.90
18173;DHT22;9211;48.818;9.312;2023-04-25T07:56:12;10.70;99.90
18173;DHT22;9211;48.818;9.312;2023-04-25T07:58:42;10.70;99.90
18173;DHT22;9211;48.818;9.312;2023-04-25T08:01:12;10.60;99.90
18173;DHT22;9211;48.818;9.312;2023-04-25T08:03:55;10.70;99.90
18173;DHT22;9211;48.818;9.312;2023-04-25T08:06:33;10.60;99.90
18173;DHT22;9211;48.818;9.312;2023-04-25T08:09:16;10.60;99.90
18173;DHT22;9211;48.818;9.312;2023-04-25T08:11:43;10.70;99.90
18173;DHT22;9211;48.818;9.312;2023-04-25T08:14:13;10.60;99.90
18173;DHT22;9211;48.818;9.312;2023-04-25T08:16:42;10.60;99.90
18173;DHT22;9211;48.818;9.312;2023-04-25T08:19:10;10.40;99.90
18173;DHT22;9211;48.818;9.312;2023-04-25T08:21:39;10.40;99.90
18173;DHT22;9211;48.818;9.312;2023-04-25T08:24:10;10.20;99.90
18173;DHT22;9211;48.818;9.312;2023-04-25T08:26:39;10.00;99.90
18173;DHT22;9211;48.818;9.312;2023-04-25T08:29:08;10.00;99.90
18173;DHT22;9211;48.818;9.312;2023-04-25T08:31:38;10.00;99.90
18173;DHT22;9211;48.818;9.312;2023-04-25T08:34:07;10.00;99.90
18173;DHT22;9211;48.818;9.312;2023-04-25T08:36:43;10.00;99.90
18173;DHT22;9211;48.818;9.312;2023-04-25T08:39:33;10.00;99.90
18173;DHT22;9211;48.818;9.312;2023-04-25T08:42:17;10.00;99.90
18173;DHT22;9211;48.818;9.312;2023-04-25T08:44:45;10.10;99.90
18173;DHT22;9211;48.818;9.312;2023-04-25T08:47:12;10.20;99.90
18173;DHT22;9211;48.818;9.312;2023-04-25T08:49:48;10.30;99.90
18173;DHT22;9211;48.818;9.312;2023-04-25T08:52:22;10.40;99.90
18173;DHT22;9211;48.818;9.312;2023-04-25T08:54:49;10.50;99.90
18173;DHT22;9211;48.818;9.312;2023-04-25T08:57:18;10.50;99.90
18173;DHT22;9211;48.818;9.312;2023-04-25T08:59:47;10.60;99.90
18173;DHT22;9211;48.818;9.312;2023-04-25T09:02:16;10.60;99.90
18173;DHT22;9211;48.818;9.312;2023-04-25T09:04:48;10.50;99.90
18173;DHT22;9211;48.818;9.312;2023-04-25T09:07:16;10.40;99.90
18173;DHT22;9211;48.818;9.312;2023-04-25T09:09:48;10.30;99.90
18173;DHT22;9211;48.818;9.312;2023-04-25T09:12:18;10.10;99.90
18173;DHT22;9211;48.818;9.312;2023-04-25T09:15:05;9.80;99.90
18173;DHT22;9211;48.818;9.312;2023-04-25T09:17:55;9.60;99.90
18173;DHT22;9211;48.818;9.312;2023-04-25T09:20:23;9.50;99.90
18173;DHT22;9211;48.818;9.312;2023-04-25T09:23:01;9.50;99.90
18173;DHT22;9211;48.818;9.312;2023-04-25T09:25:35;9.40;99.90
18173;DHT22;9211;48.818;9.312;2023-04-25T09:28:06;9.40;99.90
18173;DHT22;9211;48.818;9.312;2023-04-25T09:30:34;9.30;99.90
18173;DHT22;9211;48.818;9.312;2023-04-25T09:33:12;9.40;99.90
18173;DHT22;9211;48.818;9.312;2023-04-25T09:35:44;9.40;99.90
18173;DHT22;9211;48.818;9.312;2023-04-25T09:38:25;9.50;99.90
18173;DHT22;9211;48.818;9.312;2023-04-25T09:40:58;9.50;99.90
18173;DHT22;9211;48.818;9.312;2023-04-25T09:43:45;9.50;99.90
18173;DHT22;9211;48.818;9.312;2023-04-25T09:46:13;9.50;99.90
18173;DHT22;9211;48.818;9.312;2023-04-25T09:48:49;9.50;99.90
18173;DHT22;9211;48.818;9.312;2023-04-25T09:51:18;9.50;99.90
18173;DHT22;9211;48.818;9.312;2023-04-25T09:53:47;9.50;99.90
18173;DHT22;9211;48.818;9.312;2023-04-25T09:56:45;9.50;99.90
18173;DHT22;9211;48.818;9.312;2023-04-25T09:59:15;9.50;99.90
18173;DHT22;9211;48.818;9.312;2023-04-25T10:01:43;9.60;99.90
18173;DHT22;9211;48.818;9.312;2023-04-25T10:04:24;9.60;99.90
18173;DHT22;9211;48.818;9.312;2023-04-25T10:06:58;9.70;99.90
18173;DHT22;9211;48.818;9.312;2023-04-25T10:09:29;9.70;99.90
18173;DHT22;9211;48.818;9.312;2023-04-25T10:11:59;9.70;99.90
18173;DHT22;9211;48.818;9.312;2023-04-25T10:14:27;9.70;99.90
18173;DHT22;9211;48.818;9.312;2023-04-25T10:16:58;9.60;99.90
18173;DHT22;9211;48.818;9.312;2023-04-25T10:19:25;9.60;99.90
18173;DHT22;9211;48.818;9.312;2023-04-25T10:21:55;9.60;99.90
18173;DHT22;9211;48.818;9.312;2023-04-25T10:24:25;9.60;99.90
18173;DHT22;9211;48.818;9.312;2023-04-25T10:26:52;9.60;99.90
18173;DHT22;9211;48.818;9.312;2023-04-25T10:29:24;9.60;99.90
18173;DHT22;9211;48.818;9.312;2023-04-25T10:31:52;9.60;99.90
18173;DHT22;9211;48.818;9.312;2023-04-25T10:34:19;9.60;99.90
18173;DHT22;9211;48.818;9.312;2023-04-25T10:36:51;9.50;99.90
18173;DHT22;9211;48.818;9.312;2023-04-25T10:39:22;9.40;99.90
18173;DHT22;9211;48.818;9.312;2023-04-25T10:41:55;9.40;99.90
18173;DHT22;9211;48.818;9.312;2023-04-25T10:44:26;9.40;99.90
18173;DHT22;9211;48.818;9.312;2023-04-25T10:46:55;9.30;99.90
18173;DHT22;9211;48.818;9.312;2023-04-25T10:49:31;9.20;99.90
18173;DHT22;9211;48.818;9.312;2023-04-25T10:52:18;9.10;99.90
18173;DHT22;9211;48.818;9.312;2023-04-25T10:54:52;9.00;99.90
18173;DHT22;9211;48.818;9.312;2023-04-25T10:57:29;9.00;99.90
18173;DHT22;9211;48.818;9.312;2023-04-25T11:00:05;9.00;99.90
18173;DHT22;9211;48.818;9.312;2023-04-25T11:02:37;9.00;99.90
18173;DHT22;9211;48.818;9.312;2023-04-25T11:05:05;8.80;99.90
18173;DHT22;9211;48.818;9.312;2023-04-25T11:07:38;8.70;99.90
18173;DHT22;9211;48.818;9.312;2023-04-25T11:10:06;8.60;99.90
18173;DHT22;9211;48.818;9.312;2023-04-25T11:12:33;8.60;99.90
18173;DHT22;9211;48.818;9.312;2023-04-25T11:15:03;8.70;99.90
18173;DHT22;9211;48.818;9.312;2023-04-25T11:17:30;8.70;99.90
18173;DHT22;9211;48.818;9.312;2023-04-25T11:19:58;8.70;99.90
18173;DHT22;9211;48.818;9.312;2023-04-25T11:22:27;8.80;99.90
18173;DHT22;9211;48.818;9.312;2023-04-25T11:24:55;8.80;99.90
18173;DHT22;9211;48.818;9.312;2023-04-25T11:27:22;8.90;99.90
18173;DHT22;9211;48.818;9.312;2023-04-25T11:29:50;8.90;99.90
18173;DHT22;9211;48.818;9.312;2023-04-25T11:32:20;9.00;99.90
18173;DHT22;9211;48.818;9.312;2023-04-25T11:34:47;9.20;99.90
18173;DHT22;9211;48.818;9.312;2023-04-25T11:37:15;9.30;99.90
18173;DHT22;9211;48.818;9.312;2023-04-25T11:39:45;9.50;99.90
18173;DHT22;9211;48.818;9.312;2023-04-25T11:42:13;9.70;99.90
18173;DHT22;9211;48.818;9.312;2023-04-25T11:44:40;9.70;99.90
18173;DHT22;9211;48.818;9.312;2023-04-25T11:47:07;9.80;99.90
18173;DHT22;9211;48.818;9.312;2023-04-25T11:49:35;9.80;99.90
18173;DHT22;9211;48.818;9.312;2023-04-25T11:52:02;9.80;99.90
18173;DHT22;9211;48.818;9.312;2023-04-25T11:54:29;9.80;99.90
18173;DHT22;9211;48.818;9.312;2023-04-25T11:56:56;9.90;99.90
18173;DHT22;9211;48.818;9.312;2023-04-25T11:59:25;10.00;99.90
18173;DHT22;9211;48.818;9.312;2023-04-25T12:01:52;10.00;99.90
18173;DHT22;9211;48.818;9.312;2023-04-25T12:04:21;9.90;99.90
18173;DHT22;9211;48.818;9.312;2023-04-25T12:06:51;10.00;99.90
18173;DHT22;9211;48.818;9.312;2023-04-25T12:09:19;10.00;99.90
18173;DHT22;9211;48.818;9.312;2023-04-25T12:11:48;10.00;99.90
18173;DHT22;9211;48.818;9.312;2023-04-25T12:14:23;10.00;99.90
18173;DHT22;9211;48.818;9.312;2023-04-25T12:16:50;10.10;99.90
18173;DHT22;9211;48.818;9.312;2023-04-25T12:19:19;10.10;99.90
18173;DHT22;9211;48.818;9.312;2023-04-25T12:21:47;10.10;99.90
18173;DHT22;9211;48.818;9.312;2023-04-25T12:24:17;10.10;99.90
18173;DHT22;9211;48.818;9.312;2023-04-25T12:26:52;10.00;99.90
18173;DHT22;9211;48.818;9.312;2023-04-25T12:29:21;10.00;99.90
18173;DHT22;9211;48.818;9.312;2023-04-25T12:31:49;10.00;99.90
18173;DHT22;9211;48.818;9.312;2023-04-25T12:34:17;10.00;99.90
18173;DHT22;9211;48.818;9.312;2023-04-25T12:36:44;10.00;99.90
18173;DHT22;9211;48.818;9.312;2023-04-25T12:39:19;10.00;99.90
18173;DHT22;9211;48.818;9.312;2023-04-25T12:41:47;10.10;99.90
18173;DHT22;9211;48.818;9.312;2023-04-25T12:44:14;10.20;99.90
18173;DHT22;9211;48.818;9.312;2023-04-25T12:46:41;10.20;99.90
18173;DHT22;9211;48.818;9.312;2023-04-25T12:49:09;10.20;99.90
18173;DHT22;9211;48.818;9.312;2023-04-25T12:51:36;10.20;99.90
18173;DHT22;9211;48.818;9.312;2023-04-25T12:54:04;10.30;99.90
18173;DHT22;9211;48.818;9.312;2023-04-25T12:56:33;10.30;99.90
18173;DHT22;9211;48.818;9.312;2023-04-25T12:59:01;10.30;99.90
18173;DHT22;9211;48.818;9.312;2023-04-25T13:01:28;10.60;99.90
18173;DHT22;9211;48.818;9.312;2023-04-25T13:03:56;10.80;99.90
18173;DHT22;9211;48.818;9.312;2023-04-25T13:06:23;10.90;99.90
18173;DHT22;9211;48.818;9.312;2023-04-25T13:08:50;11.20;99.90
18173;DHT22;9211;48.818;9.312;2023-04-25T13:11:17;11.40;99.90
18173;DHT22;9211;48.818;9.312;2023-04-25T13:13:46;11.60;99.90
18173;DHT22;9211;48.818;9.312;2023-04-25T13:16:13;11.70;99.90
18173;DHT22;9211;48.818;9.312;2023-04-25T13:18:40;11.90;99.90
18173;DHT22;9211;48.818;9.312;2023-04-25T13:21:09;11.80;99.90
18173;DHT22;9211;48.818;9.312;2023-04-25T13:23:36;11.80;99.90
18173;DHT22;9211;48.818;9.312;2023-04-25T13:26:04;11.90;99.90
18173;DHT22;9211;48.818;9.312;2023-04-25T13:28:31;11.90;99.90
18173;DHT22;9211;48.818;9.312;2023-04-25T13:30:59;12.10;99.90
18173;DHT22;9211;48.818;9.312;2023-04-25T13:33:26;12.30;99.90
18173;DHT22;9211;48.818;9.312;2023-04-25T13:35:53;12.50;99.90
18173;DHT22;9211;48.818;9.312;2023-04-25T13:38:22;12.40;99.90
18173;DHT22;9211;48.818;9.312;2023-04-25T13:40:50;12.30;99.90
18173;DHT22;9211;48.818;9.312;2023-04-25T13:43:18;12.20;99.90
18173;DHT22;9211;48.818;9.312;2023-04-25T13:45:46;12.30;99.90
18173;DHT22;9211;48.818;9.312;2023-04-25T13:48:14;12.40;99.90
18173;DHT22;9211;48.818;9.312;2023-04-25T13:50:41;12.60;99.90
18173;DHT22;9211;48.818;9.312;2023-04-25T13:53:08;12.80;99.90
18173;DHT22;9211;48.818;9.312;2023-04-25T13:55:36;13.00;99.90
18173;DHT22;9211;48.818;9.312;2023-04-25T13:58:04;13.10;99.90
18173;DHT22;9211;48.818;9.312;2023-04-25T14:00:34;12.90;99.90
18173;DHT22;9211;48.818;9.312;2023-04-25T14:03:02;12.50;99.90
18173;DHT22;9211;48.818;9.312;2023-04-25T14:05:34;12.50;99.90
18173;DHT22;9211;48.818;9.312;2023-04-25T14:08:05;12.60;99.90
18173;DHT22;9211;48.818;9.312;2023-04-25T14:10:32;12.70;99.90
18173;DHT22;9211;48.818;9.312;2023-04-25T14:13:00;12.70;99.90
18173;DHT22;9211;48.818;9.312;2023-04-25T14:15:29;12.70;99.90
18173;DHT22;9211;48.818;9.312;2023-04-25T14:17:57;12.90;99.90
18173;DHT22;9211;48.818;9.312;2023-04-25T14:20:24;13.00;99.90
18173;DHT22;9211;48.818;9.312;2023-04-25T14:22:53;13.20;99.90
18173;DHT22;9211;48.818;9.312;2023-04-25T14:25:21;13.20;99.90
18173;DHT22;9211;48.818;9.312;2023-04-25T14:27:48;13.20;99.90
18173;DHT22;9211;48.818;9.312;2023-04-25T14:30:17;13.20;99.90
18173;DHT22;9211;48.818;9.312;2023-04-25T14:32:44;13.10;99.90
18173;DHT22;9211;48.818;9.312;2023-04-25T14:35:11;13.00;99.90
18173;DHT22;9211;48.818;9.312;2023-04-25T14:37:38;13.00;99.90
18173;DHT22;9211;48.818;9.312;2023-04-25T14:40:08;13.30;99.90
18173;DHT22;9211;48.818;9.312;2023-04-25T14:42:37;13.50;99.90
18173;DHT22;9211;48.818;9.312;2023-04-25T14:45:06;13.70;99.90
18173;DHT22;9211;48.818;9.312;2023-04-25T14:47:34;13.60;99.90
18173;DHT22;9211;48.818;9.312;2023-04-25T14:50:01;13.40;99.90
18173;DHT22;9211;48.818;9.312;2023-04-25T14:52:29;13.30;99.90
18173;DHT22;9211;48.818;9.312;2023-04-25T14:54:56;13.40;99.90
18173;DHT22;9211;48.818;9.312;2023-04-25T14:57:26;13.50;99.90
18173;DHT22;9211;48.818;9.312;2023-04-25T14:59:53;13.60;99.90
18173;DHT22;9211;48.818;9.312;2023-04-25T15:02:20;13.60;99.90
18173;DHT22;9211;48.818;9.312;2023-04-25T15:04:47;13.60;99.90
18173;DHT22;9211;48.818;9.312;2023-04-25T15:07:14;13.30;99.90
18173;DHT22;9211;48.818;9.312;2023-04-25T15:09:41;13.30;99.90
18173;DHT22;9211;48.818;9.312;2023-04-25T15:12:09;13.50;99.90
18173;DHT22;9211;48.818;9.312;2023-04-25T15:14:37;13.70;99.90
18173;DHT22;9211;48.818;9.312;2023-04-25T15:17:04;13.70;99.90
18173;DHT22;9211;48.818;9.312;2023-04-25T15:19:31;13.50;99.90
18173;DHT22;9211;48.818;9.312;2023-04-25T15:21:58;13.60;99.90
18173;DHT22;9211;48.818;9.312;2023-04-25T15:24:26;13.40;99.90
18173;DHT22;9211;48.818;9.312;2023-04-25T15:26:54;13.30;99.90
18173;DHT22;9211;48.818;9.312;2023-04-25T15:29:21;13.30;99.90
18173;DHT22;9211;48.818;9.312;2023-04-25T15:31:49;13.30;99.90
18173;DHT22;9211;48.818;9.312;2023-04-25T15:34:16;13.30;99.90
18173;DHT22;9211;48.818;9.312;2023-04-25T15:36:43;13.20;99.90
18173;DHT22;9211;48.818;9.312;2023-04-25T15:39:10;13.20;99.90
18173;DHT22;9211;48.818;9.312;2023-04-25T15:41:37;13.20;99.90
18173;DHT22;9211;48.818;9.312;2023-04-25T15:44:04;13.10;99.90
18173;DHT22;9211;48.818;9.312;2023-04-25T15:46:32;13.00;99.90
18173;DHT22;9211;48.818;9.312;2023-04-25T15:49:00;13.00;99.90
18173;DHT22;9211;48.818;9.312;2023-04-25T15:51:28;12.90;99.90
18173;DHT22;9211;48.818;9.312;2023-04-25T15:53:55;12.80;99.90
18173;DHT22;9211;48.818;9.312;2023-04-25T15:56:22;12.80;99.90
18173;DHT22;9211;48.818;9.312;2023-04-25T15:58:49;12.70;99.90
18173;DHT22;9211;48.818;9.312;2023-04-25T16:01:17;12.80;99.90
18173;DHT22;9211;48.818;9.312;2023-04-25T16:03:44;12.80;99.90
18173;DHT22;9211;48.818;9.312;2023-04-25T16:06:12;12.80;99.90
18173;DHT22;9211;48.818;9.312;2023-04-25T16:08:40;12.80;99.90
18173;DHT22;9211;48.818;9.312;2023-04-25T16:11:06;12.80;99.90